Daily Tabular Data
[Select Refresh to Update]


12/13/17
Time         Wind Dir   Wind Spd  Wind Gust     Hum In   Humidity    Temp In       Temp  Raw Barom   Tot Rain Wind Chill Heat Ix In Heat Index  Dew Point  DailyRain   HourRain   RainRate
                            mph        mph          %          %         F         F         in         in         F         F         F         F         in         in      in/hr
12:00am           111          0          4         22         16       72.8       60.9      29.17       0.10       60.9       71.5       59.3       14.4       0.00       0.00      0.000
12:30am            88          0          6         22         14       72.6       61.4      29.17       0.10       61.4       71.3       59.7       11.8       0.00       0.00      0.000
1:00am             92          1          6         22         15       72.5       59.7      29.17       0.10       59.7       71.2       58.0       12.0       0.00       0.00      0.000
1:30am             63          0          3         22         15       72.4       61.1      29.17       0.10       61.1       71.1       59.4       13.1       0.00       0.00      0.000
2:00am             81          1          4         22         15       72.3       61.8      29.17       0.10       61.8       71.0       60.1       13.7       0.00       0.00      0.000
2:30am             82          0          4         22         16       72.3       60.6      29.17       0.10       60.6       71.0       59.0       14.2       0.00       0.00      0.000
3:00am             92          2          4         22         24       72.2       58.8      29.16       0.10       58.8       70.9       57.6       22.1       0.00       0.00      0.000
3:30am            310          0          2         22         13       72.1       63.5      29.15       0.10       63.5       70.8       61.7       11.8       0.00       0.00      0.000
4:00am             82          0          4         22         16       71.9       60.2      29.14       0.10       60.2       70.6       58.6       13.9       0.00       0.00      0.000
4:30am             83          0          5         22         17       71.8       60.4      29.14       0.10       60.4       70.5       58.8       15.4       0.00       0.00      0.000
5:00am            110          0          2         22         17       71.7       60.7      29.14       0.10       60.7       70.4       59.1       15.7       0.00       0.00      0.000
5:30am             93          0          2         22         20       71.6       58.0      29.15       0.10       58.0       70.3       56.6       17.2       0.00       0.00      0.000
6:00am             53          2          4         22         21       71.5       57.8      29.15       0.10       57.8       70.2       56.4       18.1       0.00       0.00      0.000
6:30am            101          0          4         22         21       71.4       59.2      29.16       0.10       59.2       70.1       57.8       19.3       0.00       0.00      0.000
7:00am            106          3          4         22         20       71.4       60.8      29.16       0.10       60.8       70.1       59.4       19.5       0.00       0.00      0.000
7:30am            109          0          4         22         21       71.3       59.5      29.16       0.10       59.5       70.0       58.1       19.6       0.00       0.00      0.000
8:00am            105          0          4         22         20       71.2       63.6      29.17       0.10       63.6       69.9       62.2       21.8       0.00       0.00      0.000
8:30am             80          0          3         22         19       71.2       69.9      29.17       0.10       69.9       69.9       68.4       25.8       0.00       0.00      0.000
9:00am            111          3          7         22         14       71.3       73.9      29.18       0.10       73.9       70.0       72.2       21.7       0.00       0.00      0.000
9:30am            108          0          6         22         15       71.7       76.3      29.18       0.10       76.3       70.4       74.6       25.3       0.00       0.00      0.000
10:00am           254          0          1         22         12       71.9       76.8      29.18       0.10       76.8       70.6       75.0       20.4       0.00       0.00      0.000
10:30am           249          0          1         21         17       72.0       75.9      29.17       0.10       75.9       70.6       74.3       28.0       0.00       0.00      0.000
11:00am           223          0          1         22         15       72.0       77.8      29.15       0.10       77.8       70.7       76.1       26.5       0.00       0.00      0.000
11:30am           257          0          1         22         18       72.0       77.4      29.14       0.10       77.4       70.7       75.9       30.6       0.00       0.00      0.000
12:00pm           276          0          2         22         13       72.1       78.5      29.13       0.10       78.5       70.8       76.7       23.6       0.00       0.00      0.000
12:30pm           231          0          4         22         15       72.2       80.1      29.11       0.10       80.1       70.9       78.4       28.3       0.00       0.00      0.000
1:00pm            276          6          8         23         15       72.4       79.4      29.10       0.10       79.4       71.2       77.7       27.8       0.00       0.00      0.000
1:30pm            258          4          7         23         18       72.5       79.1      29.10       0.10       79.1       71.3       77.6       32.0       0.00       0.00      0.000
2:00pm            271          1          7         23         23       72.7       78.7      29.10       0.10       78.7       71.5       77.5       37.8       0.00       0.00      0.000
2:30pm            261          0          8         24         19       72.9       79.2      29.09       0.10       79.2       71.7       77.7       33.4       0.00       0.00      0.000
3:00pm            274          3          8         24         26       73.0       77.9      29.09       0.10       77.9       71.8       76.8       40.3       0.00       0.00      0.000
3:30pm            271          0          6         24         29       73.1       76.4      29.09       0.10       76.4       71.9       75.5       41.8       0.00       0.00      0.000
4:00pm            240          0          4         25         36       73.2       77.4      29.09       0.10       77.4       72.1       77.0       48.4       0.00       0.00      0.000
4:30pm            281          0          1         25         33       73.3       72.9      29.09       0.10       72.9       72.2       72.3       42.1       0.00       0.00      0.000
5:00pm            276          0          0         25         40       73.4       71.0      29.09       0.10       71.0       72.3       70.9       45.5       0.00       0.00      0.000
5:30pm            276          0          0         25         46       73.4       67.3      29.10       0.10       67.3       72.3       67.7       45.8       0.00       0.00      0.000
6:00pm            261          0          1         26         31       73.6       66.1      29.11       0.10       66.1       72.5       65.4       34.6       0.00       0.00      0.000